createdAt,value
2022-11-23T00:01:24.278Z,43.50
2022-11-23T00:04:52.006Z,43.50
2022-11-23T00:08:22.252Z,42.20
2022-11-23T00:11:50.317Z,45.90
2022-11-23T00:15:18.404Z,42.30
2022-11-23T00:18:54.555Z,44.20
2022-11-23T00:22:22.619Z,41.20
2022-11-23T00:29:32.518Z,43.40
2022-11-23T00:33:13.681Z,43.70
2022-11-23T00:37:01.707Z,45.90
2022-11-23T00:40:29.796Z,46.50
2022-11-23T00:43:56.996Z,45.20
2022-11-23T00:47:23.902Z,43.60
2022-11-23T00:50:51.179Z,44.30
2022-11-23T00:54:18.787Z,40.00
2022-11-23T00:57:46.232Z,45.00
2022-11-23T01:01:15.270Z,44.20
2022-11-23T01:04:43.099Z,42.70
2022-11-23T01:08:10.703Z,42.10
2022-11-23T01:11:38.275Z,43.00
2022-11-23T01:15:05.974Z,42.10
2022-11-23T01:18:33.054Z,42.40
2022-11-23T01:22:01.683Z,42.40
2022-11-23T01:25:31.669Z,45.10
2022-11-23T01:29:02.413Z,43.90
2022-11-23T01:32:32.119Z,42.90
2022-11-23T01:35:59.312Z,43.10
2022-11-23T01:39:26.738Z,43.30
2022-11-23T01:42:57.274Z,45.50
2022-11-23T01:46:52.879Z,45.20
2022-11-23T01:50:23.018Z,45.00
2022-11-23T01:53:53.281Z,46.80
2022-11-23T01:57:24.515Z,45.40
2022-11-23T02:00:51.307Z,48.80
2022-11-23T02:04:22.655Z,47.90
2022-11-23T02:07:51.654Z,46.20
2022-11-23T02:11:19.425Z,47.60
2022-11-23T02:14:48.013Z,45.50
2022-11-23T02:18:18.425Z,46.70
2022-11-23T02:21:45.766Z,44.80
2022-11-23T02:25:21.845Z,44.60
2022-11-23T02:28:53.810Z,45.80
2022-11-23T02:32:24.866Z,45.60
2022-11-23T02:36:00.657Z,44.50
2022-11-23T02:39:33.674Z,44.10
2022-11-23T02:47:13.047Z,44.80
2022-11-23T02:50:45.579Z,44.80
2022-11-23T02:54:15.947Z,46.80
2022-11-23T02:57:42.700Z,46.20
2022-11-23T03:01:10.479Z,46.10
2022-11-23T03:04:37.881Z,46.60
2022-11-23T03:08:05.303Z,46.90
2022-11-23T03:11:33.522Z,46.00
2022-11-23T03:15:02.429Z,45.00
2022-11-23T03:18:30.709Z,44.60
2022-11-23T03:21:57.753Z,45.20
2022-11-23T03:25:25.275Z,44.10
2022-11-23T03:28:54.542Z,44.50
2022-11-23T03:32:22.729Z,44.30
2022-11-23T03:35:52.323Z,44.10
2022-11-23T03:39:22.706Z,43.70
2022-11-23T03:43:13.460Z,44.60
2022-11-23T03:46:41.336Z,44.90
2022-11-23T03:50:09.956Z,45.70
2022-11-23T03:53:37.084Z,43.60
2022-11-23T03:57:03.780Z,44.90
2022-11-23T04:00:35.008Z,46.00
2022-11-23T04:04:02.346Z,44.70
2022-11-23T04:07:49.448Z,44.80
2022-11-23T04:11:16.639Z,43.60
2022-11-23T04:14:46.831Z,42.30
2022-11-23T04:18:14.056Z,42.60
2022-11-23T04:21:41.496Z,43.70
2022-11-23T04:25:09.255Z,43.90
2022-11-23T04:28:36.449Z,40.60
2022-11-23T04:32:03.293Z,41.10
2022-11-23T04:35:30.808Z,40.60
2022-11-23T04:38:58.591Z,39.90
2022-11-23T04:42:33.701Z,39.80
2022-11-23T04:46:01.538Z,39.70
2022-11-23T04:49:29.773Z,37.70
2022-11-23T04:52:56.826Z,40.50
2022-11-23T04:56:28.285Z,38.90
2022-11-23T04:59:55.438Z,38.50
2022-11-23T05:03:24.289Z,38.40
2022-11-23T05:06:51.550Z,37.40
2022-11-23T05:10:18.701Z,39.40
2022-11-23T05:13:46.320Z,40.30
2022-11-23T05:17:13.121Z,39.70
2022-11-23T05:20:41.266Z,39.90
2022-11-23T05:24:22.706Z,39.30
2022-11-23T05:28:07.542Z,39.70
2022-11-23T05:31:44.194Z,40.00
2022-11-23T05:35:14.575Z,40.60
2022-11-23T05:38:41.891Z,38.50
2022-11-23T05:42:13.220Z,37.00
2022-11-23T05:45:41.997Z,37.50
2022-11-23T05:49:10.937Z,37.40
2022-11-23T05:52:38.041Z,36.60
2022-11-23T05:56:05.401Z,37.20
2022-11-23T05:59:35.310Z,38.40
2022-11-23T06:03:05.450Z,38.70
2022-11-23T06:06:32.398Z,38.70
2022-11-23T06:09:59.463Z,43.90
2022-11-23T06:13:26.680Z,54.60
2022-11-23T06:16:54.030Z,51.60
2022-11-23T06:20:42.173Z,50.50
2022-11-23T06:24:09.553Z,44.20
2022-11-23T06:27:37.453Z,41.30
2022-11-23T06:31:09.483Z,44.20
2022-11-23T06:34:36.730Z,42.00
2022-11-23T06:38:03.940Z,40.50
2022-11-23T06:41:32.658Z,41.00
2022-11-23T06:45:02.195Z,41.50
2022-11-23T06:48:30.289Z,38.20
2022-11-23T06:51:58.180Z,40.10
2022-11-23T06:55:25.404Z,36.70
2022-11-23T06:58:52.980Z,38.30
2022-11-23T07:02:22.627Z,39.10
2022-11-23T07:05:49.375Z,38.50
2022-11-23T07:09:18.337Z,40.50
2022-11-23T07:13:06.892Z,38.80
2022-11-23T07:16:36.978Z,38.40
2022-11-23T07:20:03.745Z,40.10
2022-11-23T07:23:31.743Z,39.10
2022-11-23T07:26:58.676Z,37.00
2022-11-23T07:30:29.312Z,38.30
2022-11-23T07:33:58.532Z,38.60
2022-11-23T07:37:26.097Z,40.80
2022-11-23T07:40:53.716Z,39.80
2022-11-23T07:44:31.984Z,42.50
2022-11-23T07:48:03.619Z,44.10
2022-11-23T07:51:37.162Z,44.00
2022-11-23T07:58:29.630Z,51.10
2022-11-23T08:01:58.598Z,53.30
2022-11-23T08:05:27.588Z,98.00
2022-11-23T08:08:55.844Z,79.70
2022-11-23T08:12:23.480Z,64.30
2022-11-23T08:15:55.492Z,66.20
2022-11-23T08:19:23.118Z,66.60
2022-11-23T08:22:49.760Z,62.50
2022-11-23T08:26:16.335Z,72.30
2022-11-23T08:29:44.400Z,93.60
2022-11-23T08:33:13.635Z,71.60
2022-11-23T08:36:40.556Z,53.90
2022-11-23T08:40:08.924Z,53.50
2022-11-23T08:43:36.363Z,56.80
2022-11-23T08:47:03.887Z,53.90
2022-11-23T08:50:31.279Z,54.50
2022-11-23T08:53:58.731Z,50.00
2022-11-23T08:57:25.648Z,45.10
2022-11-23T09:00:52.331Z,43.70
2022-11-23T09:04:21.001Z,41.60
2022-11-23T09:07:47.825Z,41.60
2022-11-23T09:11:19.608Z,45.30
2022-11-23T09:14:46.031Z,45.40
2022-11-23T09:18:13.237Z,47.80
2022-11-23T09:21:40.095Z,42.60
2022-11-23T09:25:09.033Z,48.60
2022-11-23T09:28:43.103Z,49.10
2022-11-23T09:32:11.678Z,47.10
2022-11-23T09:35:43.588Z,54.30
2022-11-23T09:39:12.650Z,44.90
2022-11-23T09:43:18.990Z,42.50
2022-11-23T09:46:59.872Z,46.40
2022-11-23T09:50:36.311Z,52.30
2022-11-23T09:54:07.151Z,48.20
2022-11-23T09:57:37.788Z,50.80
2022-11-23T10:01:06.781Z,50.80
2022-11-23T10:04:37.255Z,46.50
2022-11-23T10:08:11.192Z,43.90
2022-11-23T10:12:05.435Z,44.90
2022-11-23T10:15:40.922Z,36.30
2022-11-23T10:19:21.109Z,33.60
2022-11-23T10:22:56.130Z,35.50
2022-11-23T10:26:28.406Z,35.80
2022-11-23T10:29:56.956Z,34.90
2022-11-23T10:33:31.755Z,41.00
2022-11-23T10:36:59.643Z,44.80
2022-11-23T10:40:30.763Z,38.60
2022-11-23T10:44:02.199Z,48.30
2022-11-23T10:47:41.137Z,40.30
2022-11-23T10:51:29.332Z,38.20
2022-11-23T10:54:59.113Z,40.20
2022-11-23T10:58:31.891Z,34.20
2022-11-23T11:02:17.982Z,54.00
2022-11-23T11:06:08.631Z,46.30
2022-11-23T11:09:36.317Z,36.70
2022-11-23T11:13:03.568Z,35.00
2022-11-23T11:16:32.646Z,36.20
2022-11-23T11:19:59.424Z,35.80
2022-11-23T11:23:30.927Z,44.10
2022-11-23T11:27:06.945Z,51.00
2022-11-23T11:30:50.321Z,38.60
2022-11-23T11:34:26.712Z,41.80
2022-11-23T11:37:56.682Z,44.10
2022-11-23T11:41:25.678Z,38.60
2022-11-23T11:44:56.437Z,50.20
2022-11-23T11:48:29.391Z,39.70
2022-11-23T11:52:03.822Z,34.50
2022-11-23T11:55:37.759Z,33.70
2022-11-23T11:59:14.522Z,33.20
2022-11-23T12:02:51.507Z,34.20
2022-11-23T12:06:27.097Z,38.10
2022-11-23T12:09:59.202Z,39.80
2022-11-23T12:13:30.864Z,36.00
2022-11-23T12:17:32.073Z,35.40
2022-11-23T12:21:04.314Z,35.70
2022-11-23T12:24:46.126Z,38.00
2022-11-23T12:28:38.658Z,39.00
2022-11-23T12:32:18.500Z,37.20
2022-11-23T12:36:04.150Z,36.40
2022-11-23T12:39:55.743Z,39.30
2022-11-23T12:43:33.558Z,36.60
2022-11-23T12:47:15.169Z,33.50
2022-11-23T12:50:49.432Z,34.90
2022-11-23T12:54:37.345Z,32.50
2022-11-23T12:58:10.726Z,36.30
2022-11-23T13:01:41.680Z,37.70
2022-11-23T13:05:32.744Z,36.90
2022-11-23T13:09:18.131Z,37.50
2022-11-23T13:13:27.655Z,37.00
2022-11-23T13:17:07.911Z,37.50
2022-11-23T13:21:04.210Z,50.50
2022-11-23T13:24:36.620Z,39.40
2022-11-23T13:28:05.980Z,34.30
2022-11-23T13:31:36.289Z,33.60
2022-11-23T13:35:03.390Z,36.00
2022-11-23T13:38:40.645Z,35.20
2022-11-23T13:42:11.425Z,35.10
2022-11-23T13:45:38.643Z,33.30
2022-11-23T13:49:05.519Z,34.20
2022-11-23T13:52:36.451Z,34.00
2022-11-23T13:56:31.989Z,31.00
2022-11-23T14:00:35.902Z,37.80
2022-11-23T14:07:48.069Z,32.60
2022-11-23T14:11:18.943Z,31.40
2022-11-23T14:14:56.458Z,32.50
2022-11-23T14:18:41.682Z,62.40
2022-11-23T14:22:22.780Z,50.20
2022-11-23T14:25:58.594Z,45.00
2022-11-23T14:29:32.639Z,35.60
2022-11-23T14:33:15.487Z,36.80
2022-11-23T14:36:50.876Z,34.70
2022-11-23T14:40:25.027Z,34.50
2022-11-23T14:43:52.588Z,34.90
2022-11-23T14:47:29.565Z,32.80
2022-11-23T14:51:01.836Z,31.50
2022-11-23T14:54:30.384Z,32.50
2022-11-23T14:58:00.883Z,30.60
2022-11-23T15:01:30.065Z,31.30
2022-11-23T15:05:06.250Z,29.70
2022-11-23T15:08:38.496Z,32.40
2022-11-23T15:12:21.712Z,33.60
2022-11-23T15:15:52.695Z,33.80
2022-11-23T15:19:28.578Z,32.80
2022-11-23T15:22:55.486Z,37.60
2022-11-23T15:26:46.812Z,35.90
2022-11-23T15:30:22.750Z,37.40
2022-11-23T15:33:59.180Z,36.80
2022-11-23T15:37:27.196Z,33.20
2022-11-23T15:41:07.593Z,33.40
2022-11-23T15:44:39.907Z,32.50
2022-11-23T15:48:12.077Z,32.20
2022-11-23T15:51:42.511Z,31.80
2022-11-23T15:55:16.303Z,32.90
2022-11-23T16:02:19.677Z,31.80
2022-11-23T16:05:47.306Z,29.80
2022-11-23T16:09:51.003Z,31.30
2022-11-23T16:13:39.787Z,31.30
2022-11-23T16:17:16.317Z,32.10
2022-11-23T16:20:51.922Z,32.40
2022-11-23T16:24:23.365Z,30.90
2022-11-23T16:28:00.055Z,31.20
2022-11-23T16:31:33.097Z,33.00
2022-11-23T16:35:10.464Z,34.10
2022-11-23T16:38:38.068Z,35.30
2022-11-23T16:42:05.434Z,34.90
2022-11-23T16:45:32.821Z,43.00
2022-11-23T16:49:00.904Z,39.20
2022-11-23T16:52:27.967Z,36.60
2022-11-23T16:55:59.605Z,35.40
2022-11-23T16:59:26.580Z,35.70
2022-11-23T17:02:53.287Z,36.00
2022-11-23T17:06:23.764Z,36.20
2022-11-23T17:09:50.398Z,35.10
2022-11-23T17:13:30.631Z,35.70
2022-11-23T17:17:00.209Z,36.70
2022-11-23T17:20:26.843Z,36.30
2022-11-23T17:23:53.604Z,35.00
2022-11-23T17:27:24.523Z,36.40
2022-11-23T17:30:52.368Z,35.60
2022-11-23T17:34:22.275Z,39.30
2022-11-23T17:37:49.584Z,38.50
2022-11-23T17:41:17.138Z,39.50
2022-11-23T17:44:46.547Z,38.20
2022-11-23T17:48:16.613Z,41.10
2022-11-23T17:51:50.706Z,41.40
2022-11-23T17:55:20.624Z,43.00
2022-11-23T17:58:50.649Z,42.00
2022-11-23T18:02:23.103Z,45.40
2022-11-23T18:05:50.123Z,46.50
2022-11-23T18:09:18.707Z,46.70
2022-11-23T18:12:47.856Z,46.10
2022-11-23T18:16:16.674Z,45.10
2022-11-23T18:19:45.480Z,44.40
2022-11-23T18:23:15.169Z,45.00
2022-11-23T18:26:46.025Z,42.00
2022-11-23T18:30:14.453Z,41.50
2022-11-23T18:33:41.786Z,49.60
2022-11-23T18:37:08.705Z,53.40
2022-11-23T18:40:36.073Z,47.10
2022-11-23T18:44:04.013Z,41.20
2022-11-23T18:47:33.872Z,42.50
2022-11-23T18:51:03.943Z,43.30
2022-11-23T18:54:31.490Z,43.40
2022-11-23T18:58:00.397Z,42.80
2022-11-23T19:01:32.300Z,40.90
2022-11-23T19:05:00.047Z,40.80
2022-11-23T19:08:29.147Z,40.60
2022-11-23T19:11:56.401Z,41.90
2022-11-23T19:15:27.111Z,41.10
2022-11-23T19:18:59.451Z,43.00
2022-11-23T19:22:30.035Z,50.10
2022-11-23T19:26:04.961Z,49.00
2022-11-23T19:29:33.732Z,54.20
2022-11-23T19:33:04.624Z,51.00
2022-11-23T19:36:39.623Z,48.60
2022-11-23T19:40:09.602Z,49.80
2022-11-23T19:43:37.489Z,50.20
2022-11-23T19:47:10.121Z,50.90
2022-11-23T19:50:40.900Z,53.00
2022-11-23T19:54:10.027Z,53.70
2022-11-23T19:57:38.986Z,55.00
2022-11-23T20:01:07.436Z,52.20
2022-11-23T20:04:34.611Z,52.90
2022-11-23T20:08:06.435Z,53.50
2022-11-23T20:11:37.860Z,51.40
2022-11-23T20:15:07.457Z,53.20
2022-11-23T20:18:34.476Z,51.20
2022-11-23T20:22:01.981Z,51.80
2022-11-23T20:25:34.281Z,50.20
2022-11-23T20:29:02.180Z,50.30
2022-11-23T20:32:29.791Z,45.40
2022-11-23T20:36:10.761Z,45.70
2022-11-23T20:39:40.422Z,45.40
2022-11-23T20:43:08.351Z,45.20
2022-11-23T20:50:25.521Z,45.10
2022-11-23T20:53:53.701Z,43.70
2022-11-23T20:57:24.112Z,42.00
2022-11-23T21:00:51.662Z,41.90
2022-11-23T21:04:18.330Z,41.50
2022-11-23T21:07:45.345Z,40.70
2022-11-23T21:11:36.869Z,42.20
2022-11-23T21:15:03.767Z,44.20
2022-11-23T21:18:30.567Z,44.40
2022-11-23T21:21:58.232Z,43.80
2022-11-23T21:25:25.335Z,51.00
2022-11-23T21:28:52.537Z,48.10
2022-11-23T21:32:19.677Z,49.70
2022-11-23T21:35:47.956Z,46.70
2022-11-23T21:39:16.747Z,45.00
2022-11-23T21:42:44.997Z,45.60
2022-11-23T21:46:13.335Z,46.50
2022-11-23T21:49:40.194Z,45.80
2022-11-23T21:53:06.875Z,46.00
2022-11-23T21:56:34.590Z,45.50
2022-11-23T22:00:03.046Z,47.50
2022-11-23T22:07:36.277Z,46.30
2022-11-23T22:11:10.879Z,42.30
2022-11-23T22:14:40.933Z,46.80
2022-11-23T22:18:11.696Z,46.30
2022-11-23T22:21:44.619Z,47.00
2022-11-23T22:28:44.298Z,42.10
2022-11-23T22:32:13.103Z,42.30
2022-11-23T22:35:42.539Z,43.60
2022-11-23T22:39:11.326Z,44.30
2022-11-23T22:42:54.615Z,42.10
2022-11-23T22:46:26.128Z,41.60
2022-11-23T22:49:54.744Z,41.00
2022-11-23T22:53:23.013Z,40.10
2022-11-23T22:56:50.916Z,42.60
2022-11-23T23:00:20.712Z,39.70
2022-11-23T23:03:50.027Z,40.90
2022-11-23T23:07:17.708Z,43.60
2022-11-23T23:10:48.832Z,38.50
2022-11-23T23:14:18.050Z,39.40
2022-11-23T23:17:46.808Z,41.10
2022-11-23T23:21:18.371Z,40.60
2022-11-23T23:24:48.705Z,40.60
2022-11-23T23:28:19.850Z,41.20
2022-11-23T23:31:48.329Z,39.80
2022-11-23T23:35:16.692Z,36.40
2022-11-23T23:38:45.946Z,37.90
2022-11-23T23:42:16.152Z,36.90
2022-11-23T23:45:45.760Z,39.60
2022-11-23T23:49:13.668Z,38.40
2022-11-23T23:52:42.926Z,39.90
2022-11-23T23:56:14.473Z,38.30
2022-11-23T23:59:41.953Z,39.50
